Time;durP1;ratioP1;P1;durP2;ratioP2;P2;SDS_P1;SDS_P2;PMS_P1;PMS_P2;Temp;Humidity;BMP_temperature;BMP_pressure;BME280_temperature;BME280_humidity;BME280_pressure;Samples;Min_cycle;Max_cycle;Signal;HPM_P1;HPM_P2
2023/12/22 00:01:11;;;;;;;0.00;0.00;;;8.70;99.90;;;;;;5049285;28;20201;-70
2023/12/22 00:03:37;;;;;;;0.00;0.00;;;8.60;99.90;;;;;;5050714;28;20662;-70
2023/12/22 00:06:03;;;;;;;0.00;0.00;;;8.60;99.90;;;;;;5050101;28;20288;-70
2023/12/22 00:08:28;;;;;;;0.00;0.00;;;8.40;99.90;;;;;;5050912;28;20247;-70
2023/12/22 00:10:53;;;;;;;0.00;0.00;;;8.30;99.90;;;;;;5050419;28;20311;-71
2023/12/22 00:13:19;;;;;;;0.00;0.00;;;8.20;99.90;;;;;;5050487;28;20173;-70
2023/12/22 00:15:44;;;;;;;0.00;0.00;;;8.10;99.90;;;;;;5050649;28;20662;-69
2023/12/22 00:18:10;;;;;;;0.00;0.00;;;8.00;99.90;;;;;;5050607;28;20189;-70
2023/12/22 00:20:36;;;;;;;0.00;0.00;;;7.80;99.90;;;;;;5043729;28;20192;-69
2023/12/22 00:23:02;;;;;;;0.00;0.00;;;7.60;99.90;;;;;;5050385;28;20196;-71
2023/12/22 00:25:27;;;;;;;0.00;0.00;;;7.50;99.90;;;;;;5050354;28;20260;-71
2023/12/22 00:27:53;;;;;;;0.00;0.00;;;7.40;99.90;;;;;;5048875;28;20637;-70
2023/12/22 00:30:18;;;;;;;0.00;0.00;;;7.20;99.90;;;;;;5050102;28;20219;-71
2023/12/22 00:32:44;;;;;;;0.00;0.00;;;7.10;99.90;;;;;;5050118;28;20185;-71
2023/12/22 00:35:09;;;;;;;0.00;0.00;;;7.00;99.90;;;;;;5050255;28;20204;-70
2023/12/22 00:37:35;;;;;;;0.00;0.00;;;6.80;99.90;;;;;;5050682;28;20235;-72
2023/12/22 00:40:01;;;;;;;0.00;0.00;;;6.80;99.90;;;;;;5050402;28;20697;-71
2023/12/22 00:42:26;;;;;;;0.00;0.00;;;6.60;99.90;;;;;;5050337;28;20224;-73
2023/12/22 00:44:52;;;;;;;0.00;0.00;;;6.60;99.90;;;;;;5049263;28;20252;-71
2023/12/22 00:47:17;;;;;;;0.00;0.00;;;6.50;99.90;;;;;;5050554;28;20657;-71
2023/12/22 00:49:43;;;;;;;0.00;0.00;;;6.50;99.90;;;;;;5050289;28;20181;-71
2023/12/22 00:52:08;;;;;;;0.00;0.00;;;6.50;99.90;;;;;;5050192;28;20193;-71
2023/12/22 00:54:34;;;;;;;0.00;0.00;;;6.50;99.90;;;;;;5050392;28;20208;-71
2023/12/22 00:56:59;;;;;;;0.00;0.00;;;6.40;99.90;;;;;;5050375;28;20181;-71
2023/12/22 00:59:25;;;;;;;0.00;0.00;;;6.40;99.90;;;;;;5050027;28;20246;-72
2023/12/22 01:01:50;;;;;;;0.00;0.00;;;6.40;99.90;;;;;;5050171;28;20225;-71
2023/12/22 01:04:16;;;;;;;0.00;0.00;;;6.30;99.90;;;;;;5049774;28;20177;-71
2023/12/22 01:06:42;;;;;;;0.00;0.00;;;6.30;99.90;;;;;;5051568;28;20735;-71
2023/12/22 01:09:07;;;;;;;0.00;0.00;;;6.20;99.90;;;;;;5053743;28;20177;-71
2023/12/22 01:11:33;;;;;;;0.00;0.00;;;6.20;99.90;;;;;;5053664;28;20180;-71
2023/12/22 01:13:58;;;;;;;0.00;0.00;;;6.20;99.90;;;;;;5053666;28;20318;-70
2023/12/22 01:16:24;;;;;;;0.00;0.00;;;6.20;99.90;;;;;;5053583;28;20173;-71
2023/12/22 01:18:50;;;;;;;0.00;0.00;;;6.20;99.90;;;;;;5055735;28;20213;-71
2023/12/22 01:21:16;;;;;;;0.00;0.00;;;6.20;99.90;;;;;;5053593;28;20217;-72
2023/12/22 01:23:42;;;;;;;0.00;0.00;;;6.20;99.90;;;;;;5053450;28;20272;-72
2023/12/22 01:26:08;;;;;;;0.00;0.00;;;6.20;99.90;;;;;;5052195;28;20189;-72
2023/12/22 01:28:34;;;;;;;0.00;0.00;;;6.20;99.90;;;;;;5053415;28;20177;-73
2023/12/22 01:31:00;;;;;;;0.00;0.00;;;6.20;99.90;;;;;;5053249;28;20256;-72
2023/12/22 01:33:26;;;;;;;0.00;0.00;;;6.30;99.90;;;;;;5053335;28;20184;-72
2023/12/22 01:35:51;;;;;;;0.00;0.00;;;6.30;99.90;;;;;;5053265;28;20204;-72
2023/12/22 01:38:17;;;;;;;0.00;0.00;;;6.30;99.90;;;;;;5052845;28;20282;-72
2023/12/22 01:40:43;;;;;;;0.00;0.00;;;6.30;99.90;;;;;;5053127;28;20767;-72
2023/12/22 01:43:08;;;;;;;0.00;0.00;;;6.30;99.90;;;;;;5051970;28;20173;-72
2023/12/22 01:45:34;;;;;;;0.00;0.00;;;6.30;99.90;;;;;;5053459;28;20177;-73
2023/12/22 01:48:00;;;;;;;0.00;0.00;;;6.40;99.90;;;;;;5053177;28;20560;-72
2023/12/22 01:50:26;;;;;;;0.00;0.00;;;6.40;99.90;;;;;;5052631;28;20192;-72
2023/12/22 01:52:52;;;;;;;0.00;0.00;;;6.50;99.90;;;;;;5053017;28;20174;-72
2023/12/22 01:55:18;;;;;;;0.00;0.00;;;6.60;99.90;;;;;;5051777;28;20205;-72
2023/12/22 01:57:46;;;;;;;0.00;0.00;;;6.80;99.90;;;;;;5052893;28;20217;-72
2023/12/22 02:00:12;;;;;;;0.00;0.00;;;6.90;99.90;;;;;;5052898;28;20186;-72
2023/12/22 02:02:40;;;;;;;0.00;0.00;;;7.10;99.90;;;;;;5052480;28;20209;-72
2023/12/22 02:05:09;;;;;;;0.00;0.00;;;7.20;99.90;;;;;;5052651;28;20242;-72
2023/12/22 02:07:34;;;;;;;0.00;0.00;;;7.20;99.90;;;;;;5052849;28;20182;-72
2023/12/22 02:10:00;;;;;;;0.00;0.00;;;7.30;99.90;;;;;;5052580;28;20182;-72
2023/12/22 02:12:26;;;;;;;0.00;0.00;;;7.30;99.90;;;;;;5052388;28;20648;-72
2023/12/22 02:14:51;;;;;;;0.00;0.00;;;7.30;99.90;;;;;;5052592;28;20181;-72
2023/12/22 02:17:22;;;;;;;0.10;0.10;;;7.30;99.90;;;;;;5052133;28;20185;-72
2023/12/22 02:19:48;;;;;;;0.00;0.00;;;7.40;99.90;;;;;;5052079;28;20177;-72
2023/12/22 02:22:14;;;;;;;0.00;0.00;;;7.40;99.90;;;;;;5052457;28;20217;-72
2023/12/22 02:24:41;;;;;;;0.00;0.00;;;7.40;99.90;;;;;;5052142;28;20189;-71
2023/12/22 02:27:39;;;;;;;0.00;0.00;;;7.50;99.90;;;;;;5052271;28;20178;-71
2023/12/22 02:30:11;;;;;;;0.00;0.00;;;7.50;99.90;;;;;;5050900;28;20272;-71
2023/12/22 02:32:40;;;;;;;0.00;0.00;;;7.50;99.90;;;;;;5050345;28;20186;-71
2023/12/22 02:35:11;;;;;;;0.00;0.00;;;7.50;99.90;;;;;;5052253;28;20185;-71
2023/12/22 02:37:39;;;;;;;0.00;0.00;;;7.60;99.90;;;;;;5051860;28;20189;-72
2023/12/22 02:40:05;;;;;;;0.00;0.00;;;7.50;99.90;;;;;;5051527;28;20220;-72
2023/12/22 02:42:32;;;;;;;0.00;0.00;;;7.60;99.90;;;;;;5051882;28;20302;-72
2023/12/22 02:44:58;;;;;;;0.00;0.00;;;7.60;99.90;;;;;;5051796;28;20180;-72
2023/12/22 02:47:24;;;;;;;0.00;0.00;;;7.60;99.90;;;;;;5052160;28;20272;-71
2023/12/22 02:49:50;;;;;;;0.00;0.00;;;7.60;99.90;;;;;;5051972;28;20261;-71
2023/12/22 02:52:15;;;;;;;0.00;0.00;;;7.60;99.90;;;;;;5052041;28;20186;-71
2023/12/22 02:54:41;;;;;;;0.00;0.00;;;7.60;99.90;;;;;;5051620;28;20189;-70
2023/12/22 02:57:09;;;;;;;0.00;0.00;;;7.60;99.90;;;;;;5051830;28;20209;-72
2023/12/22 02:59:36;;;;;;;0.00;0.00;;;7.60;99.90;;;;;;5051688;28;20220;-71
2023/12/22 03:02:02;;;;;;;0.00;0.00;;;7.60;99.90;;;;;;5051170;28;20248;-72
2023/12/22 03:04:27;;;;;;;0.00;0.00;;;7.60;99.90;;;;;;5051010;28;20576;-72
2023/12/22 03:06:53;;;;;;;0.00;0.00;;;7.70;99.90;;;;;;5050018;28;20186;-71
2023/12/22 03:09:18;;;;;;;0.00;0.00;;;7.70;99.90;;;;;;5051013;28;20178;-72
2023/12/22 03:11:44;;;;;;;0.00;0.00;;;7.70;99.90;;;;;;5051452;28;20181;-71
2023/12/22 03:14:10;;;;;;;0.00;0.00;;;7.70;99.90;;;;;;5050841;28;20232;-72
2023/12/22 03:16:36;;;;;;;0.00;0.00;;;7.70;99.90;;;;;;5051756;28;20731;-72
2023/12/22 03:19:01;;;;;;;0.00;0.00;;;7.80;99.90;;;;;;5050966;28;20217;-71
2023/12/22 03:21:27;;;;;;;0.03;0.03;;;7.80;99.90;;;;;;5051541;28;20284;-73
2023/12/22 03:23:52;;;;;;;0.00;0.00;;;7.80;99.90;;;;;;5051206;28;20660;-71
2023/12/22 03:26:18;;;;;;;0.00;0.00;;;7.90;99.90;;;;;;5051404;28;20703;-71
2023/12/22 03:28:43;;;;;;;0.00;0.00;;;7.90;99.90;;;;;;5050698;28;20535;-71
2023/12/22 03:31:09;;;;;;;0.00;0.00;;;7.90;99.90;;;;;;5052415;28;20178;-71
2023/12/22 03:33:34;;;;;;;0.00;0.00;;;7.90;99.90;;;;;;5051574;28;20181;-72
2023/12/22 03:36:00;;;;;;;0.00;0.00;;;7.90;99.90;;;;;;5050098;28;20223;-71
2023/12/22 03:38:25;;;;;;;0.00;0.00;;;8.00;99.90;;;;;;5050954;28;20300;-71
2023/12/22 03:40:51;;;;;;;0.00;0.00;;;8.00;99.90;;;;;;5050901;28;20254;-71
2023/12/22 03:43:16;;;;;;;0.75;0.75;;;8.00;99.90;;;;;;5051292;28;20629;-71
2023/12/22 03:45:42;;;;;;;0.00;0.00;;;7.90;99.90;;;;;;5051228;28;20180;-71
2023/12/22 03:48:07;;;;;;;0.00;0.00;;;8.00;99.90;;;;;;5050910;28;20185;-71
2023/12/22 03:50:33;;;;;;;0.00;0.00;;;8.00;99.90;;;;;;5051301;28;20189;-71
2023/12/22 03:52:58;;;;;;;0.00;0.00;;;8.00;99.90;;;;;;5051093;28;20182;-72
2023/12/22 03:55:24;;;;;;;0.00;0.00;;;8.00;99.90;;;;;;5050804;28;20173;-71
2023/12/22 03:57:49;;;;;;;0.00;0.00;;;7.90;99.90;;;;;;5050866;28;20178;-70
2023/12/22 04:00:16;;;;;;;0.00;0.00;;;7.80;99.90;;;;;;5051024;28;20525;-71
2023/12/22 04:02:41;;;;;;;0.08;0.08;;;7.60;99.90;;;;;;5050614;28;20610;-72
2023/12/22 04:05:07;;;;;;;0.00;0.00;;;7.60;99.90;;;;;;5050800;28;20216;-71
2023/12/22 04:07:33;;;;;;;0.00;0.00;;;7.50;99.90;;;;;;5050976;28;20565;-71
2023/12/22 04:09:59;;;;;;;0.00;0.00;;;7.40;99.90;;;;;;5049516;28;20190;-72
2023/12/22 04:12:24;;;;;;;0.00;0.00;;;7.30;99.90;;;;;;5050114;28;20188;-71
2023/12/22 04:14:50;;;;;;;0.00;0.00;;;7.10;99.90;;;;;;5050073;28;20186;-71
2023/12/22 04:17:15;;;;;;;0.00;0.00;;;7.00;99.90;;;;;;5050184;28;20203;-71
2023/12/22 04:19:41;;;;;;;0.00;0.00;;;6.90;99.90;;;;;;5049910;28;20185;-70
2023/12/22 04:22:06;;;;;;;0.00;0.00;;;6.90;99.90;;;;;;5050645;28;20300;-74
2023/12/22 04:24:32;;;;;;;0.13;0.13;;;6.80;99.90;;;;;;5050714;28;20751;-74
2023/12/22 04:26:57;;;;;;;0.00;0.00;;;6.80;99.90;;;;;;5051390;28;20231;-75
2023/12/22 04:29:23;;;;;;;0.00;0.00;;;6.80;99.90;;;;;;5050964;28;20212;-77
2023/12/22 04:31:48;;;;;;;0.00;0.00;;;6.80;99.90;;;;;;5050462;28;20212;-77
2023/12/22 04:34:15;;;;;;;0.00;0.00;;;6.90;99.90;;;;;;5050564;28;20200;-72
2023/12/22 04:36:41;;;;;;;0.00;0.00;;;7.00;99.90;;;;;;5050807;28;20561;-74
2023/12/22 04:39:06;;;;;;;0.00;0.00;;;7.10;99.90;;;;;;5050626;28;20307;-77
2023/12/22 04:41:32;;;;;;;0.00;0.00;;;7.10;99.90;;;;;;5052386;28;20213;-74
2023/12/22 04:43:58;;;;;;;0.00;0.00;;;7.20;99.90;;;;;;5047800;28;20295;-72
2023/12/22 04:46:23;;;;;;;0.00;0.00;;;7.30;99.90;;;;;;5055287;28;20220;-73
2023/12/22 04:48:49;;;;;;;0.00;0.00;;;7.30;99.90;;;;;;5054526;28;20173;-75
2023/12/22 04:51:14;;;;;;;0.00;0.00;;;7.30;99.90;;;;;;5055003;28;20645;-71
2023/12/22 04:53:40;;;;;;;0.00;0.00;;;7.40;99.90;;;;;;5054530;28;20625;-71
2023/12/22 04:56:06;;;;;;;0.00;0.00;;;7.40;99.90;;;;;;5054456;28;20548;-72
2023/12/22 04:58:32;;;;;;;0.00;0.00;;;7.40;99.90;;;;;;5053934;28;20236;-80
2023/12/22 05:00:59;;;;;;;0.10;0.10;;;7.40;99.90;;;;;;5054066;28;20757;-73
2023/12/22 05:03:24;;;;;;;0.00;0.00;;;7.50;99.90;;;;;;5035125;28;20190;-74
2023/12/22 05:05:50;;;;;;;0.00;0.00;;;7.50;99.90;;;;;;5054651;28;20185;-71
2023/12/22 05:08:16;;;;;;;0.00;0.00;;;7.50;99.90;;;;;;5053944;28;20242;-72
2023/12/22 05:10:41;;;;;;;0.00;0.00;;;7.50;99.90;;;;;;5054073;28;20189;-73
2023/12/22 05:13:07;;;;;;;0.00;0.00;;;7.50;99.90;;;;;;5054553;28;20189;-73
2023/12/22 05:15:32;;;;;;;0.00;0.00;;;7.50;99.90;;;;;;5054587;28;20173;-72
2023/12/22 05:17:58;;;;;;;0.00;0.00;;;7.50;99.90;;;;;;5058445;28;20181;-64
2023/12/22 05:20:23;;;;;;;0.00;0.00;;;7.50;99.90;;;;;;5073726;28;20177;-62
2023/12/22 05:22:49;;;;;;;0.00;0.00;;;7.50;99.90;;;;;;5067428;28;20221;-62
2023/12/22 05:25:14;;;;;;;0.00;0.00;;;7.50;99.90;;;;;;5053942;28;20177;-62
2023/12/22 05:27:42;;;;;;;0.00;0.00;;;7.50;99.90;;;;;;5053983;28;20525;-60
2023/12/22 05:30:08;;;;;;;0.00;0.00;;;7.50;99.90;;;;;;5049139;28;20669;-61
2023/12/22 05:32:35;;;;;;;0.00;0.00;;;7.50;99.90;;;;;;5053383;28;20279;-61
2023/12/22 05:35:00;;;;;;;0.08;0.08;;;7.50;99.90;;;;;;5053751;28;20223;-61
2023/12/22 05:37:26;;;;;;;0.00;0.00;;;7.50;99.90;;;;;;5053600;28;20558;-60
2023/12/22 05:39:51;;;;;;;0.00;0.00;;;7.60;99.90;;;;;;5053482;28;20225;-64
2023/12/22 05:42:17;;;;;;;0.00;0.00;;;7.60;99.90;;;;;;5053728;28;20295;-64
2023/12/22 05:44:43;;;;;;;0.00;0.00;;;7.60;99.90;;;;;;5053300;28;20182;-71
2023/12/22 05:47:09;;;;;;;0.00;0.00;;;7.60;99.90;;;;;;5046345;28;20190;-75
2023/12/22 05:49:35;;;;;;;0.00;0.00;;;7.60;99.90;;;;;;5050377;28;20181;-74
2023/12/22 05:52:00;;;;;;;0.00;0.00;;;7.60;99.90;;;;;;5052759;28;20178;-75
2023/12/22 05:54:26;;;;;;;0.00;0.00;;;7.50;99.90;;;;;;5052578;28;20700;-78
2023/12/22 05:56:51;;;;;;;0.00;0.00;;;7.50;99.90;;;;;;5053360;28;20185;-75
2023/12/22 05:59:17;;;;;;;0.00;0.00;;;7.50;99.90;;;;;;5052739;28;20232;-75
2023/12/22 06:01:43;;;;;;;0.00;0.00;;;7.50;99.90;;;;;;5053159;28;20288;-74
2023/12/22 06:04:08;;;;;;;0.00;0.00;;;7.50;99.90;;;;;;5052989;28;20178;-75
2023/12/22 06:06:35;;;;;;;0.00;0.00;;;7.60;99.90;;;;;;5053454;28;20252;-74
2023/12/22 06:09:01;;;;;;;0.00;0.00;;;7.60;99.90;;;;;;5051541;28;20188;-74
2023/12/22 06:11:26;;;;;;;0.00;0.00;;;7.70;99.90;;;;;;5051694;28;20177;-75
2023/12/22 06:13:52;;;;;;;0.00;0.00;;;7.70;99.90;;;;;;5051494;28;20170;-75
2023/12/22 06:16:18;;;;;;;0.00;0.00;;;7.70;99.90;;;;;;5052996;28;20181;-75
2023/12/22 06:18:44;;;;;;;0.00;0.00;;;7.80;99.90;;;;;;5052906;28;20503;-77
2023/12/22 06:21:10;;;;;;;0.00;0.00;;;7.80;99.90;;;;;;5052990;28;20208;-75
2023/12/22 06:23:36;;;;;;;0.00;0.00;;;7.80;99.90;;;;;;5053396;28;20181;-77
2023/12/22 06:26:07;;;;;;;0.00;0.00;;;7.80;99.90;;;;;;5053348;28;20174;-76
2023/12/22 06:28:33;;;;;;;0.00;0.00;;;7.80;99.90;;;;;;5053325;28;20219;-76
2023/12/22 06:30:58;;;;;;;0.00;0.00;;;7.80;99.90;;;;;;5053185;28;20169;-75
2023/12/22 06:33:24;;;;;;;0.00;0.00;;;7.80;99.90;;;;;;5053200;28;20264;-75
2023/12/22 06:35:53;;;;;;;0.00;0.00;;;7.80;99.90;;;;;;5052931;28;20633;-75
2023/12/22 06:38:19;;;;;;;0.00;0.00;;;7.90;99.90;;;;;;5052886;28;20217;-75
2023/12/22 06:40:46;;;;;;;0.00;0.00;;;7.90;99.90;;;;;;5052983;28;20185;-76
2023/12/22 06:43:12;;;;;;;0.00;0.00;;;7.90;99.90;;;;;;5052932;28;20536;-75
2023/12/22 06:45:39;;;;;;;0.00;0.00;;;7.90;99.90;;;;;;5052918;28;20170;-75
2023/12/22 06:48:06;;;;;;;0.00;0.00;;;7.90;99.90;;;;;;5052674;28;20272;-75
2023/12/22 06:50:31;;;;;;;0.00;0.00;;;7.90;99.90;;;;;;5052904;28;20193;-76
2023/12/22 06:52:57;;;;;;;0.00;0.00;;;7.90;99.90;;;;;;5052693;28;20173;-75
2023/12/22 06:55:23;;;;;;;0.00;0.00;;;8.00;99.90;;;;;;5052689;28;20177;-76
2023/12/22 06:57:49;;;;;;;0.75;0.75;;;8.00;99.90;;;;;;5052520;28;20264;-75
2023/12/22 07:00:15;;;;;;;0.00;0.00;;;8.00;99.90;;;;;;5052673;28;20172;-75
2023/12/22 07:02:41;;;;;;;0.00;0.00;;;8.00;99.90;;;;;;5052765;28;20208;-75
2023/12/22 07:05:09;;;;;;;0.00;0.00;;;7.90;99.90;;;;;;5052143;28;20717;-76
2023/12/22 07:07:36;;;;;;;0.00;0.00;;;8.00;99.90;;;;;;5052743;28;20264;-74
2023/12/22 07:10:01;;;;;;;0.00;0.00;;;8.00;99.90;;;;;;5052767;28;20173;-74
2023/12/22 07:12:27;;;;;;;0.00;0.00;;;7.90;99.90;;;;;;5052639;28;20187;-76
2023/12/22 07:14:53;;;;;;;0.00;0.00;;;7.90;99.90;;;;;;5052564;28;20181;-76
2023/12/22 07:17:19;;;;;;;0.00;0.00;;;7.90;99.90;;;;;;5052527;28;20197;-75
2023/12/22 07:19:44;;;;;;;0.52;0.47;;;7.90;99.90;;;;;;5051277;28;20236;-75
2023/12/22 07:22:10;;;;;;;0.00;0.00;;;7.90;99.90;;;;;;5052154;28;20303;-74
2023/12/22 07:24:36;;;;;;;0.00;0.00;;;7.80;99.90;;;;;;5052439;28;20169;-76
2023/12/22 07:27:01;;;;;;;0.00;0.00;;;7.80;99.90;;;;;;5052298;28;20184;-75
2023/12/22 07:29:26;;;;;;;0.00;0.00;;;7.80;99.90;;;;;;5052108;28;20220;-74
2023/12/22 07:31:52;;;;;;;0.00;0.00;;;7.80;99.90;;;;;;5051945;28;20207;-74
2023/12/22 07:34:18;;;;;;;0.00;0.00;;;7.80;99.90;;;;;;5052141;28;20197;-74
2023/12/22 07:36:44;;;;;;;0.10;0.10;;;7.80;99.90;;;;;;5051940;28;20184;-73
2023/12/22 07:39:10;;;;;;;0.00;0.00;;;7.80;99.90;;;;;;5051485;28;20763;-74
2023/12/22 07:41:36;;;;;;;0.00;0.00;;;7.80;99.90;;;;;;5051876;28;20585;-75
2023/12/22 07:44:02;;;;;;;0.00;0.00;;;7.80;99.90;;;;;;5051881;28;20209;-74
2023/12/22 07:46:28;;;;;;;0.00;0.00;;;7.80;99.90;;;;;;5050308;28;20173;-74
2023/12/22 07:48:54;;;;;;;0.00;0.00;;;7.80;99.90;;;;;;5051587;28;20257;-75
2023/12/22 07:51:20;;;;;;;0.00;0.00;;;7.80;99.90;;;;;;5051648;28;20248;-75
2023/12/22 07:53:45;;;;;;;0.00;0.00;;;7.80;99.90;;;;;;5051501;28;20261;-74
2023/12/22 07:56:11;;;;;;;0.00;0.00;;;7.80;99.90;;;;;;5051646;28;20577;-73
2023/12/22 07:58:37;;;;;;;0.00;0.00;;;7.80;99.90;;;;;;5052049;28;20280;-73
2023/12/22 08:01:03;;;;;;;0.00;0.00;;;7.70;99.90;;;;;;5051324;28;20213;-73
2023/12/22 08:03:29;;;;;;;0.00;0.00;;;7.60;99.90;;;;;;5051160;28;20625;-73
2023/12/22 08:05:55;;;;;;;0.00;0.00;;;7.60;99.90;;;;;;5050476;28;20189;-73
2023/12/22 08:08:21;;;;;;;0.00;0.00;;;7.50;99.90;;;;;;5051752;28;20170;-72
2023/12/22 08:10:46;;;;;;;0.00;0.00;;;7.50;99.90;;;;;;5055394;28;20200;-71
2023/12/22 08:13:12;;;;;;;0.00;0.00;;;7.40;99.90;;;;;;5057593;28;20655;-70
2023/12/22 08:15:37;;;;;;;0.00;0.00;;;7.40;99.90;;;;;;5053185;28;20235;-70
2023/12/22 08:18:03;;;;;;;0.00;0.00;;;7.40;99.90;;;;;;5052964;28;20254;-70
2023/12/22 08:20:29;;;;;;;0.00;0.00;;;7.30;99.90;;;;;;5052369;28;20173;-70
2023/12/22 08:22:54;;;;;;;0.00;0.00;;;7.40;99.90;;;;;;5051897;28;20205;-70
2023/12/22 08:25:20;;;;;;;0.00;0.00;;;7.40;99.90;;;;;;5056591;28;20352;-71
2023/12/22 08:27:46;;;;;;;0.03;0.03;;;7.40;99.90;;;;;;5057899;28;20281;-72
2023/12/22 08:30:12;;;;;;;0.00;0.00;;;7.30;99.90;;;;;;5055102;28;20177;-72
2023/12/22 08:32:38;;;;;;;0.00;0.00;;;7.30;99.90;;;;;;5051460;28;20181;-72
2023/12/22 08:35:04;;;;;;;0.00;0.00;;;7.30;99.90;;;;;;5053857;28;20550;-72
2023/12/22 08:37:30;;;;;;;0.00;0.00;;;7.30;99.90;;;;;;5054714;28;20173;-71
2023/12/22 08:39:57;;;;;;;0.00;0.00;;;7.30;99.90;;;;;;5056282;28;20236;-71
2023/12/22 08:42:23;;;;;;;0.00;0.00;;;7.30;99.90;;;;;;5057350;28;20249;-71
2023/12/22 08:44:51;;;;;;;0.00;0.00;;;7.30;99.90;;;;;;5056806;28;20704;-72
2023/12/22 08:47:17;;;;;;;0.00;0.00;;;7.20;99.90;;;;;;5053019;28;20629;-74
2023/12/22 08:49:42;;;;;;;0.00;0.00;;;7.20;99.90;;;;;;5051008;28;20184;-74
2023/12/22 08:52:08;;;;;;;0.00;0.00;;;7.30;99.90;;;;;;5050851;28;20272;-73
2023/12/22 08:54:35;;;;;;;0.00;0.00;;;7.30;99.90;;;;;;5051011;28;20162;-73
2023/12/22 08:57:03;;;;;;;0.00;0.00;;;7.30;99.90;;;;;;5051011;28;20173;-73
2023/12/22 08:59:29;;;;;;;0.00;0.00;;;7.30;99.90;;;;;;5050941;28;20235;-73
2023/12/22 09:01:55;;;;;;;0.00;0.00;;;7.30;99.90;;;;;;5050803;28;20205;-75
2023/12/22 09:04:22;;;;;;;0.00;0.00;;;7.30;99.90;;;;;;5050950;28;20177;-74
2023/12/22 09:06:48;;;;;;;0.10;0.10;;;7.30;99.90;;;;;;5049354;28;20690;-74
2023/12/22 09:09:14;;;;;;;0.00;0.00;;;7.40;99.90;;;;;;5050740;28;20205;-76
2023/12/22 09:11:39;;;;;;;0.00;0.00;;;7.40;99.90;;;;;;5050720;28;20206;-76
2023/12/22 09:14:09;;;;;;;0.00;0.00;;;7.40;99.90;;;;;;5050694;28;20184;-75
2023/12/22 09:16:35;;;;;;;0.00;0.00;;;7.40;99.90;;;;;;5050674;28;20223;-76
2023/12/22 09:19:00;;;;;;;0.00;0.00;;;7.40;99.90;;;;;;5050543;28;20565;-75
2023/12/22 09:21:26;;;;;;;0.00;0.00;;;7.40;99.90;;;;;;5050519;28;20217;-76
2023/12/22 09:23:52;;;;;;;0.00;0.00;;;7.50;99.90;;;;;;5050519;28;20180;-75
2023/12/22 09:26:17;;;;;;;0.30;0.30;;;7.50;99.90;;;;;;5050683;28;20209;-74
2023/12/22 09:28:44;;;;;;;0.00;0.00;;;7.50;99.90;;;;;;5053568;28;20169;-76
2023/12/22 09:31:10;;;;;;;0.00;0.00;;;7.60;99.90;;;;;;5054215;28;20212;-75
2023/12/22 09:33:36;;;;;;;0.00;0.00;;;7.60;99.90;;;;;;5054292;28;20650;-76
2023/12/22 09:36:02;;;;;;;0.00;0.00;;;7.60;99.90;;;;;;5054047;28;20174;-76
2023/12/22 09:38:29;;;;;;;0.00;0.00;;;7.70;99.90;;;;;;5053839;28;20213;-75
2023/12/22 09:40:55;;;;;;;0.00;0.00;;;7.70;99.90;;;;;;5053972;28;20541;-75
2023/12/22 09:43:21;;;;;;;0.00;0.00;;;7.70;99.90;;;;;;5053967;28;20186;-76
2023/12/22 09:45:49;;;;;;;0.00;0.00;;;7.80;99.90;;;;;;5054027;28;20248;-75
2023/12/22 09:48:17;;;;;;;0.00;0.00;;;7.80;99.90;;;;;;5053943;28;20200;-75
2023/12/22 09:50:44;;;;;;;0.00;0.00;;;7.80;99.90;;;;;;5053807;28;20170;-74
2023/12/22 09:53:12;;;;;;;0.00;0.00;;;7.90;99.90;;;;;;5053721;28;20185;-75
2023/12/22 09:55:38;;;;;;;0.00;0.00;;;7.90;99.90;;;;;;5053636;28;20173;-75
2023/12/22 09:58:06;;;;;;;0.32;0.32;;;7.90;99.90;;;;;;5053693;28;20583;-76
2023/12/22 10:00:32;;;;;;;0.10;0.10;;;8.00;99.90;;;;;;5053831;28;20248;-77
2023/12/22 10:02:58;;;;;;;0.03;0.03;;;8.00;99.90;;;;;;5053392;28;20211;-76
2023/12/22 10:05:23;;;;;;;0.00;0.00;;;8.00;99.90;;;;;;5052299;28;20173;-76
2023/12/22 10:07:50;;;;;;;0.00;0.00;;;8.00;99.90;;;;;;5053434;28;20205;-77
2023/12/22 10:10:16;;;;;;;0.00;0.00;;;8.10;99.90;;;;;;5053450;28;20205;-76
2023/12/22 10:12:45;;;;;;;0.00;0.00;;;8.10;99.90;;;;;;5052100;28;20604;-77
2023/12/22 10:15:12;;;;;;;0.00;0.00;;;8.10;99.90;;;;;;5053499;28;20162;-76
2023/12/22 10:17:38;;;;;;;0.00;0.00;;;8.10;99.90;;;;;;5053327;28;20177;-76
2023/12/22 10:20:04;;;;;;;0.00;0.00;;;8.10;99.90;;;;;;5053263;28;20170;-75
2023/12/22 10:22:29;;;;;;;0.00;0.00;;;8.20;99.90;;;;;;5051896;28;20209;-75
2023/12/22 10:24:55;;;;;;;0.10;0.10;;;8.20;99.90;;;;;;5053059;28;20251;-75
2023/12/22 10:27:23;;;;;;;0.00;0.00;;;8.20;99.90;;;;;;5053113;28;20184;-74
2023/12/22 10:29:50;;;;;;;0.00;0.00;;;8.20;99.90;;;;;;5052871;28;20566;-77
2023/12/22 10:32:16;;;;;;;0.00;0.00;;;8.30;99.90;;;;;;5053048;28;20210;-76
2023/12/22 10:34:42;;;;;;;0.00;0.00;;;8.20;99.90;;;;;;5053039;28;20177;-75
2023/12/22 10:37:09;;;;;;;0.00;0.00;;;8.30;99.90;;;;;;5052800;28;20177;-76
2023/12/22 10:39:36;;;;;;;0.00;0.00;;;8.30;99.90;;;;;;5051943;28;20784;-76
2023/12/22 10:42:02;;;;;;;0.20;0.20;;;8.30;99.90;;;;;;5052709;28;20225;-75
2023/12/22 10:44:29;;;;;;;0.00;0.00;;;8.20;99.90;;;;;;5052566;28;20641;-76
2023/12/22 10:46:55;;;;;;;0.00;0.00;;;8.20;99.90;;;;;;5052584;28;20177;-76
2023/12/22 10:49:22;;;;;;;0.00;0.00;;;8.30;99.90;;;;;;5052832;28;20181;-76
2023/12/22 10:51:47;;;;;;;0.00;0.00;;;8.20;99.90;;;;;;5052645;28;20629;-76
2023/12/22 10:54:14;;;;;;;0.08;0.08;;;8.30;99.90;;;;;;5052809;28;20188;-77
2023/12/22 10:56:40;;;;;;;0.00;0.00;;;8.40;99.90;;;;;;5052619;28;20724;-76
2023/12/22 10:59:06;;;;;;;0.30;0.20;;;8.40;99.90;;;;;;5052380;28;20593;-75
2023/12/22 11:01:38;;;;;;;0.00;0.00;;;8.40;99.90;;;;;;5052475;28;20209;-76
2023/12/22 11:04:06;;;;;;;0.10;0.10;;;8.30;99.90;;;;;;5052506;28;20188;-76
2023/12/22 11:06:37;;;;;;;0.00;0.00;;;8.40;99.90;;;;;;5052479;28;20213;-76
2023/12/22 11:09:08;;;;;;;0.00;0.00;;;8.30;99.90;;;;;;5052426;28;20653;-76
2023/12/22 11:11:36;;;;;;;0.00;0.00;;;8.30;99.90;;;;;;5052385;28;20537;-76
2023/12/22 11:14:02;;;;;;;0.00;0.00;;;8.30;99.90;;;;;;5052494;28;20250;-76
2023/12/22 11:16:28;;;;;;;0.10;0.10;;;8.30;99.90;;;;;;5052255;28;20529;-75
2023/12/22 11:18:55;;;;;;;0.00;0.00;;;8.30;99.90;;;;;;5052132;28;20248;-76
2023/12/22 11:21:25;;;;;;;0.13;0.13;;;8.30;99.90;;;;;;5052322;28;20221;-77
2023/12/22 11:23:52;;;;;;;0.00;0.00;;;8.30;99.90;;;;;;5052213;28;20173;-76
2023/12/22 11:26:19;;;;;;;0.00;0.00;;;8.20;99.90;;;;;;5052074;28;20663;-75
2023/12/22 11:28:46;;;;;;;0.00;0.00;;;8.30;99.90;;;;;;5052144;28;20173;-76
2023/12/22 11:31:12;;;;;;;0.00;0.00;;;8.30;99.90;;;;;;5052097;28;20452;-77
2023/12/22 11:33:43;;;;;;;0.00;0.00;;;8.30;99.90;;;;;;5052033;28;20222;-75
2023/12/22 11:36:09;;;;;;;0.00;0.00;;;8.30;99.90;;;;;;5051922;28;20593;-75
2023/12/22 11:38:35;;;;;;;0.00;0.00;;;8.30;99.90;;;;;;5051733;28;20220;-76
2023/12/22 11:41:02;;;;;;;0.00;0.00;;;8.30;99.90;;;;;;5051695;28;20535;-76
2023/12/22 11:43:28;;;;;;;0.00;0.00;;;8.30;99.90;;;;;;5051777;28;20181;-77
2023/12/22 11:45:54;;;;;;;0.00;0.00;;;8.30;99.90;;;;;;5051818;28;20533;-76
2023/12/22 11:48:20;;;;;;;0.00;0.00;;;8.30;99.90;;;;;;5051795;28;20199;-76
2023/12/22 11:50:46;;;;;;;0.00;0.00;;;8.30;99.90;;;;;;5051617;28;20169;-76
2023/12/22 11:53:23;;;;;;;0.00;0.00;;;8.30;99.90;;;;;;5050573;28;20209;-77
2023/12/22 11:56:04;;;;;;;0.00;0.00;;;8.20;99.90;;;;;;5051809;28;20169;-76
2023/12/22 11:58:38;;;;;;;0.00;0.00;;;8.20;99.90;;;;;;5051742;28;20319;-75
2023/12/22 12:01:07;;;;;;;0.00;0.00;;;8.30;99.90;;;;;;5051461;28;20215;-75
2023/12/22 12:03:36;;;;;;;0.00;0.00;;;8.30;99.90;;;;;;5051562;28;20185;-76
2023/12/22 12:06:13;;;;;;;0.00;0.00;;;8.20;99.90;;;;;;5051472;28;20181;-77
2023/12/22 12:08:38;;;;;;;0.00;0.00;;;8.30;99.90;;;;;;5051685;28;20232;-76
2023/12/22 12:11:06;;;;;;;0.00;0.00;;;8.30;99.90;;;;;;5051419;28;20699;-76
2023/12/22 12:13:33;;;;;;;0.00;0.00;;;8.20;99.90;;;;;;5051508;28;20182;-76
2023/12/22 12:16:01;;;;;;;0.00;0.00;;;8.30;99.90;;;;;;5051453;28;20176;-77
2023/12/22 12:18:30;;;;;;;0.08;0.08;;;8.30;99.90;;;;;;5051261;28;20680;-77
2023/12/22 12:20:56;;;;;;;0.00;0.00;;;8.30;99.90;;;;;;5049948;28;20733;-76
2023/12/22 12:23:26;;;;;;;0.00;0.00;;;8.30;99.90;;;;;;5051487;28;20271;-75
2023/12/22 12:25:53;;;;;;;0.00;0.00;;;8.20;99.90;;;;;;5051220;28;20197;-76
2023/12/22 12:28:26;;;;;;;0.00;0.00;;;8.20;99.90;;;;;;5051516;28;20188;-75
2023/12/22 12:31:00;;;;;;;0.00;0.00;;;8.20;99.90;;;;;;5051362;28;20243;-74
2023/12/22 12:33:27;;;;;;;0.10;0.10;;;8.30;99.90;;;;;;5051376;28;20165;-76
2023/12/22 12:36:05;;;;;;;0.00;0.00;;;8.20;99.90;;;;;;5051617;28;20742;-76
2023/12/22 12:38:48;;;;;;;0.35;0.35;;;8.20;99.90;;;;;;5051274;28;20221;-77
2023/12/22 12:41:15;;;;;;;0.00;0.00;;;8.30;99.90;;;;;;5051608;28;20227;-75
2023/12/22 12:43:45;;;;;;;0.00;0.00;;;8.30;99.90;;;;;;5051483;28;20174;-76
2023/12/22 12:46:11;;;;;;;0.00;0.00;;;8.30;99.90;;;;;;5051593;28;20684;-76
2023/12/22 12:48:38;;;;;;;2.13;1.10;;;8.30;99.90;;;;;;5051524;28;20572;-76
2023/12/22 12:51:05;;;;;;;0.00;0.00;;;8.30;99.90;;;;;;5051246;28;20173;-75
2023/12/22 12:53:32;;;;;;;0.00;0.00;;;8.40;99.90;;;;;;5051286;28;20178;-75